Time;durP1;ratioP1;P1;durP2;ratioP2;P2;SDS_P1;SDS_P2;PMS_P1;PMS_P2;Temp;Humidity;BMP_temperature;BMP_pressure;BME280_temperature;BME280_humidity;BME280_pressure;Samples;Min_cycle;Max_cycle;Signal;HPM_P1;HPM_P2
2021/10/20 00:00:31;;;;;;;8.10;3.10;;;18.00;99.90;;;;;;5085225;28;20195;-64
2021/10/20 00:02:56;;;;;;;9.90;3.20;;;18.00;99.90;;;;;;5088939;28;20148;-64
2021/10/20 00:05:23;;;;;;;3.38;3.08;;;17.90;99.90;;;;;;5088992;28;20164;-64
2021/10/20 00:07:49;;;;;;;3.78;3.47;;;17.90;99.90;;;;;;5088571;28;20209;-64
2021/10/20 00:10:17;;;;;;;3.35;3.05;;;17.90;99.90;;;;;;5088536;28;20218;-65
2021/10/20 00:12:44;;;;;;;3.45;3.15;;;17.90;99.90;;;;;;5088718;28;20171;-64
2021/10/20 00:15:13;;;;;;;6.50;3.42;;;18.00;99.90;;;;;;5088828;28;20274;-64
2021/10/20 00:17:39;;;;;;;3.50;3.20;;;18.00;99.90;;;;;;5088587;28;20223;-64
2021/10/20 00:20:10;;;;;;;8.27;2.75;;;17.90;99.90;;;;;;5088414;28;20171;-64
2021/10/20 00:22:36;;;;;;;3.95;3.55;;;17.80;99.90;;;;;;5088550;28;20195;-65
2021/10/20 00:25:03;;;;;;;8.20;3.80;;;17.80;99.90;;;;;;5088846;28;20164;-64
2021/10/20 00:27:28;;;;;;;4.22;3.35;;;17.80;99.90;;;;;;5088393;28;20191;-65
2021/10/20 00:29:54;;;;;;;10.25;3.50;;;17.90;99.90;;;;;;5088584;28;20160;-64
2021/10/20 00:32:20;;;;;;;4.55;3.20;;;17.90;99.90;;;;;;5088631;28;20183;-65
2021/10/20 00:34:46;;;;;;;4.20;3.75;;;18.00;99.90;;;;;;5088282;28;20167;-64
2021/10/20 00:37:11;;;;;;;4.47;4.07;;;17.90;99.90;;;;;;5088199;28;20172;-64
2021/10/20 00:39:37;;;;;;;6.63;3.33;;;17.90;99.90;;;;;;5088307;28;20525;-65
2021/10/20 00:42:03;;;;;;;3.75;3.45;;;17.90;99.90;;;;;;5088182;28;20176;-65
2021/10/20 00:44:29;;;;;;;3.67;3.35;;;17.90;99.90;;;;;;5088168;28;20157;-65
2021/10/20 00:46:56;;;;;;;6.95;3.97;;;17.90;99.90;;;;;;5088200;28;20238;-64
2021/10/20 00:49:22;;;;;;;6.40;4.10;;;17.90;99.90;;;;;;5087866;28;20167;-65
2021/10/20 00:51:47;;;;;;;5.47;3.70;;;17.80;99.90;;;;;;5087594;28;20232;-65
2021/10/20 00:54:13;;;;;;;6.55;3.53;;;17.90;99.90;;;;;;5088298;28;20175;-65
2021/10/20 00:56:39;;;;;;;6.85;4.13;;;17.90;99.90;;;;;;5087857;28;20516;-65
2021/10/20 00:59:05;;;;;;;5.57;3.65;;;17.80;99.90;;;;;;5086446;28;20179;-65
2021/10/20 01:01:31;;;;;;;7.53;3.58;;;17.80;99.90;;;;;;5087773;28;20191;-64
2021/10/20 01:03:56;;;;;;;5.32;4.38;;;17.80;99.90;;;;;;5087883;28;20168;-64
2021/10/20 01:06:22;;;;;;;3.65;3.35;;;17.80;99.90;;;;;;5087269;28;20164;-64
2021/10/20 01:08:48;;;;;;;5.35;3.58;;;17.70;99.90;;;;;;5087764;28;20186;-64
2021/10/20 01:11:14;;;;;;;4.28;3.70;;;17.80;99.90;;;;;;5087516;28;20707;-65
2021/10/20 01:13:40;;;;;;;7.63;3.85;;;17.90;99.90;;;;;;5086975;28;20194;-65
2021/10/20 01:16:06;;;;;;;4.30;3.83;;;17.90;99.90;;;;;;5087560;28;20164;-65
2021/10/20 01:18:32;;;;;;;5.65;3.85;;;17.90;99.90;;;;;;5087440;28;20582;-65
2021/10/20 01:20:59;;;;;;;6.57;3.72;;;17.90;99.90;;;;;;5087004;28;20192;-65
2021/10/20 01:23:26;;;;;;;6.80;4.18;;;17.90;99.90;;;;;;5087573;28;20153;-64
2021/10/20 01:25:52;;;;;;;5.55;3.63;;;17.80;99.90;;;;;;5087367;28;20199;-65
2021/10/20 01:28:18;;;;;;;4.25;3.85;;;17.90;99.90;;;;;;5087239;28;20172;-65
2021/10/20 01:30:43;;;;;;;7.20;3.97;;;17.90;99.90;;;;;;5087207;28;20160;-65
2021/10/20 01:33:10;;;;;;;4.35;3.95;;;17.90;99.90;;;;;;5087407;28;20221;-65
2021/10/20 01:35:36;;;;;;;5.07;3.97;;;17.80;99.90;;;;;;5085913;28;20180;-65
2021/10/20 01:38:02;;;;;;;3.78;3.47;;;17.80;99.90;;;;;;5086945;28;20196;-64
2021/10/20 01:40:28;;;;;;;4.38;3.83;;;17.90;99.90;;;;;;5087010;28;20192;-65
2021/10/20 01:42:54;;;;;;;4.22;3.30;;;17.80;99.90;;;;;;5086967;28;20167;-64
2021/10/20 01:45:21;;;;;;;7.68;3.75;;;17.90;99.90;;;;;;5086999;28;20160;-65
2021/10/20 01:47:46;;;;;;;5.30;3.90;;;17.80;99.90;;;;;;5087025;28;20168;-64
2021/10/20 01:50:15;;;;;;;6.68;3.92;;;17.90;99.90;;;;;;5086758;28;20160;-65
2021/10/20 01:52:41;;;;;;;3.80;3.50;;;17.90;99.90;;;;;;5086723;28;20175;-64
2021/10/20 01:55:10;;;;;;;4.72;4.00;;;17.90;99.90;;;;;;5086946;28;20164;-64
2021/10/20 01:57:36;;;;;;;5.15;4.00;;;17.90;99.90;;;;;;5086776;28;20156;-64
2021/10/20 02:00:02;;;;;;;4.15;3.78;;;17.80;99.90;;;;;;5086524;28;20567;-65
2021/10/20 02:02:28;;;;;;;7.75;4.18;;;17.90;99.90;;;;;;5086914;28;20176;-64
2021/10/20 02:04:53;;;;;;;6.70;4.47;;;17.80;99.90;;;;;;5086544;28;20164;-65
2021/10/20 02:07:19;;;;;;;4.82;3.72;;;17.90;99.90;;;;;;5086298;28;20175;-64
2021/10/20 02:09:45;;;;;;;6.38;4.15;;;17.80;99.90;;;;;;5086301;28;20204;-64
2021/10/20 02:12:11;;;;;;;4.38;3.97;;;17.80;99.90;;;;;;5085231;28;20532;-65
2021/10/20 02:14:37;;;;;;;5.90;4.10;;;17.70;99.90;;;;;;5086357;28;20160;-65
2021/10/20 02:17:04;;;;;;;5.72;4.20;;;17.70;99.90;;;;;;5086657;28;20164;-64
2021/10/20 02:19:29;;;;;;;8.00;4.03;;;17.80;99.90;;;;;;5086355;28;20172;-65
2021/10/20 02:21:56;;;;;;;4.72;3.95;;;17.80;99.90;;;;;;5086075;28;20244;-64
2021/10/20 02:24:22;;;;;;;6.43;3.97;;;17.80;99.90;;;;;;5086413;28;20206;-64
2021/10/20 02:26:47;;;;;;;5.03;3.70;;;17.70;99.90;;;;;;5086271;28;20156;-65
2021/10/20 02:29:13;;;;;;;4.35;3.95;;;17.80;99.90;;;;;;5086254;28;20195;-64
2021/10/20 02:31:45;;;;;;;8.23;4.13;;;17.70;99.90;;;;;;5086435;28;20318;-65
2021/10/20 02:34:12;;;;;;;4.22;3.83;;;17.60;99.90;;;;;;5086167;28;20168;-65
2021/10/20 02:36:37;;;;;;;5.45;3.83;;;17.70;99.90;;;;;;5086054;28;20170;-65
2021/10/20 02:39:03;;;;;;;7.85;4.05;;;17.60;99.90;;;;;;5086248;28;20168;-65
2021/10/20 02:41:28;;;;;;;4.07;3.78;;;17.50;99.90;;;;;;5086059;28;20194;-65
2021/10/20 02:43:54;;;;;;;5.60;4.18;;;17.50;99.90;;;;;;5086308;28;20191;-64
2021/10/20 02:46:19;;;;;;;4.68;4.25;;;17.50;99.90;;;;;;5086221;28;20192;-65
2021/10/20 02:48:45;;;;;;;4.40;4.00;;;17.50;99.90;;;;;;5085986;28;20168;-65
2021/10/20 02:51:12;;;;;;;4.45;4.05;;;17.50;99.90;;;;;;5085644;28;20652;-65
2021/10/20 02:53:37;;;;;;;4.32;3.90;;;17.50;99.90;;;;;;5086179;28;20221;-65
2021/10/20 02:56:03;;;;;;;4.50;4.10;;;17.30;99.90;;;;;;5086149;28;20160;-64
2021/10/20 02:58:29;;;;;;;5.43;4.25;;;17.40;99.90;;;;;;5086180;28;20156;-65
2021/10/20 03:00:55;;;;;;;7.35;3.90;;;17.50;99.90;;;;;;5085957;28;20267;-65
2021/10/20 03:03:20;;;;;;;7.53;3.90;;;17.40;99.90;;;;;;5086042;28;20164;-64
2021/10/20 03:05:46;;;;;;;6.88;4.15;;;17.50;99.90;;;;;;5086105;28;20175;-65
2021/10/20 03:08:12;;;;;;;4.75;4.18;;;17.40;99.90;;;;;;5085821;28;20172;-64
2021/10/20 03:10:39;;;;;;;4.60;4.20;;;17.30;99.90;;;;;;5085714;28;20215;-65
2021/10/20 03:13:05;;;;;;;6.45;4.43;;;17.30;99.90;;;;;;5085894;28;20182;-64
2021/10/20 03:15:31;;;;;;;6.82;4.35;;;17.30;99.90;;;;;;5085918;28;20168;-65
2021/10/20 03:17:56;;;;;;;5.25;3.70;;;17.30;99.90;;;;;;5085729;28;20163;-65
2021/10/20 03:20:22;;;;;;;4.13;3.72;;;17.40;99.90;;;;;;5085633;28;20191;-64
2021/10/20 03:22:47;;;;;;;6.45;4.18;;;17.30;99.90;;;;;;5085498;28;20180;-64
2021/10/20 03:25:14;;;;;;;4.80;4.10;;;17.30;99.90;;;;;;5086002;28;20163;-65
2021/10/20 03:27:44;;;;;;;5.07;4.57;;;17.30;99.90;;;;;;5085933;28;20198;-65
2021/10/20 03:30:11;;;;;;;12.05;4.43;;;17.30;99.90;;;;;;5085623;28;20168;-65
2021/10/20 03:32:36;;;;;;;5.53;4.63;;;17.30;99.90;;;;;;5085742;28;20168;-65
2021/10/20 03:35:03;;;;;;;5.28;4.65;;;17.30;99.90;;;;;;5085516;28;20164;-65
2021/10/20 03:37:28;;;;;;;11.95;4.43;;;17.20;99.90;;;;;;5088099;28;20172;-64
2021/10/20 03:39:54;;;;;;;7.22;4.45;;;17.30;99.90;;;;;;5089401;28;20202;-64
2021/10/20 03:42:20;;;;;;;4.63;4.22;;;17.30;99.90;;;;;;5089335;28;20183;-64
2021/10/20 03:44:45;;;;;;;5.38;4.88;;;17.30;99.90;;;;;;5089450;28;20205;-64
2021/10/20 03:47:11;;;;;;;5.47;4.63;;;17.30;99.90;;;;;;5089394;28;20235;-65
2021/10/20 03:49:37;;;;;;;7.13;4.35;;;17.20;99.90;;;;;;5089150;28;20282;-65
2021/10/20 03:52:03;;;;;;;5.68;4.72;;;17.20;99.90;;;;;;5088865;28;20664;-65
2021/10/20 03:54:28;;;;;;;12.15;4.93;;;17.30;99.90;;;;;;5089536;28;20219;-65
2021/10/20 03:56:54;;;;;;;6.68;4.78;;;17.20;99.90;;;;;;5089347;28;20191;-64
2021/10/20 03:59:20;;;;;;;5.05;4.55;;;17.20;99.90;;;;;;5088950;28;20852;-65
2021/10/20 04:01:45;;;;;;;7.65;4.50;;;17.20;99.90;;;;;;5088554;28;20183;-64
2021/10/20 04:04:11;;;;;;;7.68;4.22;;;17.30;99.90;;;;;;5088867;28;20523;-65
2021/10/20 04:06:37;;;;;;;6.90;4.72;;;17.20;99.90;;;;;;5088483;28;20180;-65
2021/10/20 04:09:03;;;;;;;8.13;4.70;;;17.10;99.90;;;;;;5088980;28;20156;-65
2021/10/20 04:11:29;;;;;;;5.03;4.53;;;17.10;99.90;;;;;;5088727;28;20287;-64
2021/10/20 04:13:54;;;;;;;6.80;4.93;;;17.10;99.90;;;;;;5088903;28;20190;-64
2021/10/20 04:16:20;;;;;;;5.20;4.32;;;17.20;99.90;;;;;;5087546;28;20387;-64
2021/10/20 04:18:46;;;;;;;5.20;4.70;;;17.20;99.90;;;;;;5088558;28;20214;-65
2021/10/20 04:21:11;;;;;;;10.95;4.60;;;17.20;99.90;;;;;;5088269;28;20192;-65
2021/10/20 04:23:37;;;;;;;5.07;4.40;;;17.20;99.90;;;;;;5088719;28;20220;-64
2021/10/20 04:26:03;;;;;;;4.93;4.53;;;17.10;99.90;;;;;;5088648;28;20161;-65
2021/10/20 04:28:28;;;;;;;5.07;4.38;;;17.10;99.90;;;;;;5088638;28;20175;-65
2021/10/20 04:30:54;;;;;;;6.38;4.50;;;17.00;99.90;;;;;;5088438;28;20164;-65
2021/10/20 04:33:19;;;;;;;8.40;4.28;;;17.00;99.90;;;;;;5088458;28;20160;-64
2021/10/20 04:35:45;;;;;;;4.72;4.32;;;16.90;99.90;;;;;;5088502;28;20513;-65
2021/10/20 04:38:11;;;;;;;5.90;4.72;;;16.90;99.90;;;;;;5088070;28;20194;-64
2021/10/20 04:40:36;;;;;;;5.38;4.75;;;16.90;99.90;;;;;;5088309;28;20195;-64
2021/10/20 04:43:02;;;;;;;7.20;4.80;;;16.90;99.90;;;;;;5088196;28;20170;-65
2021/10/20 04:45:28;;;;;;;5.95;4.65;;;16.80;99.90;;;;;;5088281;28;20195;-64
2021/10/20 04:47:53;;;;;;;8.18;4.85;;;16.90;99.90;;;;;;5087136;28;20164;-65
2021/10/20 04:50:19;;;;;;;6.75;4.80;;;16.90;99.90;;;;;;5087982;28;20157;-64
2021/10/20 04:52:45;;;;;;;7.00;4.95;;;16.90;99.90;;;;;;5086281;28;20589;-64
2021/10/20 04:55:11;;;;;;;6.47;4.75;;;16.90;99.90;;;;;;5088138;28;20722;-65
2021/10/20 04:57:36;;;;;;;5.07;4.53;;;16.90;99.90;;;;;;5088187;28;20159;-65
2021/10/20 05:00:05;;;;;;;6.63;4.32;;;16.90;99.90;;;;;;5087689;28;20186;-64
2021/10/20 05:02:35;;;;;;;11.43;5.95;;;16.90;99.90;;;;;;5088024;28;20233;-65
2021/10/20 05:05:02;;;;;;;6.85;5.22;;;16.90;99.90;;;;;;5086543;28;20164;-64
2021/10/20 05:07:28;;;;;;;6.47;4.82;;;16.90;99.90;;;;;;5087448;28;20160;-65
2021/10/20 05:09:54;;;;;;;6.20;5.03;;;16.90;99.90;;;;;;5087424;28;20233;-65
2021/10/20 05:12:19;;;;;;;6.68;4.50;;;16.80;99.90;;;;;;5087784;28;20215;-65
2021/10/20 05:14:45;;;;;;;8.55;4.78;;;16.90;99.90;;;;;;5087663;28;20160;-65
2021/10/20 05:17:11;;;;;;;6.97;4.75;;;17.00;99.90;;;;;;5087583;28;20200;-65
2021/10/20 05:19:36;;;;;;;7.28;5.35;;;17.00;99.90;;;;;;5087153;28;20172;-65
2021/10/20 05:22:02;;;;;;;6.15;4.65;;;17.00;99.90;;;;;;5087053;28;20210;-65
2021/10/20 05:24:28;;;;;;;11.15;4.97;;;16.90;99.90;;;;;;5087724;28;20473;-65
2021/10/20 05:26:54;;;;;;;9.63;5.00;;;16.90;99.90;;;;;;5087333;28;20164;-65
2021/10/20 05:29:21;;;;;;;5.63;5.10;;;16.90;99.90;;;;;;5086873;28;20168;-65
2021/10/20 05:31:47;;;;;;;5.07;4.55;;;16.80;99.90;;;;;;5087138;28;20228;-65
2021/10/20 05:34:12;;;;;;;5.88;4.88;;;16.70;99.90;;;;;;5087239;28;20171;-65
2021/10/20 05:36:38;;;;;;;6.57;5.18;;;16.80;99.90;;;;;;5086926;28;20632;-65
2021/10/20 05:39:05;;;;;;;14.50;5.18;;;16.70;99.90;;;;;;5087001;28;20176;-66
2021/10/20 05:41:31;;;;;;;6.75;5.18;;;16.70;99.90;;;;;;5086826;28;20215;-65
2021/10/20 05:43:57;;;;;;;7.13;5.22;;;16.80;99.90;;;;;;5087111;28;20164;-66
2021/10/20 05:46:22;;;;;;;6.97;4.72;;;16.80;99.90;;;;;;5086870;28;20167;-65
2021/10/20 05:48:48;;;;;;;7.32;4.97;;;16.80;99.90;;;;;;5086771;28;20168;-65
2021/10/20 05:51:14;;;;;;;5.93;5.40;;;16.80;99.90;;;;;;5086113;28;20164;-64
2021/10/20 05:53:39;;;;;;;6.90;5.32;;;17.00;99.90;;;;;;5086777;28;20156;-64
2021/10/20 05:56:06;;;;;;;5.47;4.97;;;17.00;99.90;;;;;;5086199;28;20168;-64
2021/10/20 05:58:32;;;;;;;8.30;5.07;;;17.00;99.90;;;;;;5085856;28;20178;-65
2021/10/20 06:00:57;;;;;;;5.95;5.07;;;16.90;99.90;;;;;;5086377;28;20267;-64
2021/10/20 06:03:23;;;;;;;5.30;4.80;;;17.00;99.90;;;;;;5086607;28;20202;-64
2021/10/20 06:05:48;;;;;;;5.80;5.05;;;17.00;99.90;;;;;;5086575;28;20164;-65
2021/10/20 06:08:14;;;;;;;8.15;5.72;;;17.00;99.90;;;;;;5086390;28;20170;-64
2021/10/20 06:10:40;;;;;;;7.30;5.85;;;17.00;99.90;;;;;;5085694;28;20225;-65
2021/10/20 06:13:05;;;;;;;6.13;5.50;;;17.10;99.90;;;;;;5086264;28;20159;-65
2021/10/20 06:15:31;;;;;;;9.10;5.95;;;17.10;99.90;;;;;;5086186;28;20164;-64
2021/10/20 06:17:57;;;;;;;7.93;5.55;;;17.10;99.90;;;;;;5086572;28;20565;-64
2021/10/20 06:20:22;;;;;;;6.85;5.80;;;17.20;99.90;;;;;;5085802;28;20191;-64
2021/10/20 06:22:48;;;;;;;7.45;5.13;;;17.20;99.90;;;;;;5085723;28;20220;-65
2021/10/20 06:25:14;;;;;;;9.95;5.40;;;17.20;99.90;;;;;;5086374;28;20160;-65
2021/10/20 06:27:40;;;;;;;8.68;5.47;;;17.20;99.90;;;;;;5086306;28;20215;-64
2021/10/20 06:30:07;;;;;;;8.98;5.55;;;17.30;99.90;;;;;;5086095;28;20237;-64
2021/10/20 06:32:33;;;;;;;6.10;5.50;;;17.30;99.90;;;;;;5086165;28;20160;-64
2021/10/20 06:34:59;;;;;;;6.45;5.60;;;17.20;99.90;;;;;;5084749;28;20171;-64
2021/10/20 06:37:27;;;;;;;10.68;6.25;;;17.20;99.90;;;;;;5085468;28;20176;-64
2021/10/20 06:39:53;;;;;;;7.85;6.47;;;17.00;99.90;;;;;;5084389;28;20183;-64
2021/10/20 06:42:18;;;;;;;12.02;7.15;;;16.90;99.90;;;;;;5085962;28;20219;-64
2021/10/20 06:44:44;;;;;;;11.32;7.22;;;16.80;99.90;;;;;;5084480;28;20167;-64
2021/10/20 06:47:10;;;;;;;10.95;7.32;;;16.70;99.90;;;;;;5085517;28;20159;-64
2021/10/20 06:49:35;;;;;;;11.18;7.85;;;16.60;99.90;;;;;;5085599;28;20186;-64
2021/10/20 06:52:01;;;;;;;9.05;7.03;;;16.50;99.90;;;;;;5085166;28;20644;-64
2021/10/20 06:54:27;;;;;;;10.07;7.80;;;16.50;99.90;;;;;;5086180;28;20525;-64
2021/10/20 06:56:55;;;;;;;9.35;8.35;;;16.40;99.90;;;;;;5085826;28;20164;-64
2021/10/20 06:59:21;;;;;;;8.90;7.72;;;16.40;99.90;;;;;;5085984;28;20798;-64
2021/10/20 07:01:47;;;;;;;14.77;7.93;;;16.30;99.90;;;;;;5067591;28;20191;-65
2021/10/20 07:04:12;;;;;;;9.75;8.32;;;16.30;99.90;;;;;;5085757;28;20183;-65
2021/10/20 07:06:39;;;;;;;13.23;9.38;;;16.20;99.90;;;;;;5085459;28;20636;-65
2021/10/20 07:09:05;;;;;;;12.88;9.45;;;16.30;99.90;;;;;;5085597;28;20194;-65
2021/10/20 07:11:32;;;;;;;11.18;9.50;;;16.30;99.90;;;;;;5086903;28;20253;-65
2021/10/20 07:13:58;;;;;;;10.00;9.00;;;16.30;99.90;;;;;;5089855;28;20167;-65
2021/10/20 07:16:23;;;;;;;13.25;8.57;;;16.30;99.90;;;;;;5089838;28;20163;-65
2021/10/20 07:18:50;;;;;;;12.43;9.15;;;16.30;99.90;;;;;;5089592;28;20255;-65
2021/10/20 07:21:17;;;;;;;12.65;8.80;;;16.40;99.90;;;;;;5089142;28;20201;-65
2021/10/20 07:23:42;;;;;;;12.23;9.30;;;16.50;99.90;;;;;;5088444;28;20210;-65
2021/10/20 07:26:08;;;;;;;15.77;9.95;;;16.50;99.90;;;;;;5089528;28;20160;-65
2021/10/20 07:28:34;;;;;;;10.32;9.15;;;16.50;99.90;;;;;;5089710;28;20170;-65
2021/10/20 07:30:59;;;;;;;12.23;9.40;;;16.50;99.90;;;;;;5089420;28;20560;-65
2021/10/20 07:33:25;;;;;;;10.77;8.45;;;16.40;99.90;;;;;;5089587;28;20164;-65
2021/10/20 07:35:51;;;;;;;8.90;8.00;;;16.40;99.90;;;;;;5089349;28;20231;-65
2021/10/20 07:38:16;;;;;;;10.02;8.05;;;16.40;99.90;;;;;;5087758;28;20175;-65
2021/10/20 07:40:42;;;;;;;11.35;7.80;;;16.50;99.90;;;;;;5088725;28;20192;-65
2021/10/20 07:43:08;;;;;;;11.02;7.95;;;16.50;99.90;;;;;;5089157;28;20187;-65
2021/10/20 07:45:34;;;;;;;9.68;8.10;;;16.60;99.90;;;;;;5089122;28;20164;-65
2021/10/20 07:48:00;;;;;;;10.68;8.43;;;16.60;99.90;;;;;;5087694;28;20187;-65
2021/10/20 07:50:26;;;;;;;8.88;7.82;;;16.70;99.90;;;;;;5088225;28;20641;-65
2021/10/20 07:52:52;;;;;;;11.20;8.38;;;16.80;99.90;;;;;;5088441;28;20171;-65
2021/10/20 07:55:21;;;;;;;10.18;8.70;;;16.70;99.90;;;;;;5088726;28;20397;-65
2021/10/20 07:57:48;;;;;;;51.17;11.48;;;16.70;99.90;;;;;;5088875;28;20187;-65
2021/10/20 08:00:15;;;;;;;22.65;8.70;;;16.80;99.90;;;;;;5088318;28;20175;-65
2021/10/20 08:02:41;;;;;;;9.77;8.73;;;16.70;99.90;;;;;;5088775;28;20156;-65
2021/10/20 08:05:07;;;;;;;10.50;8.02;;;16.80;99.90;;;;;;5088839;28;20160;-65
2021/10/20 08:07:33;;;;;;;11.23;8.45;;;16.70;99.90;;;;;;5088613;28;20244;-65
2021/10/20 08:09:59;;;;;;;8.48;7.65;;;16.70;99.90;;;;;;5088099;28;20212;-65
2021/10/20 08:12:24;;;;;;;10.93;7.88;;;16.70;99.90;;;;;;5088745;28;20239;-65
2021/10/20 08:14:53;;;;;;;9.02;7.18;;;16.90;99.90;;;;;;5088695;28;20168;-65
2021/10/20 08:17:19;;;;;;;8.35;7.00;;;16.90;99.90;;;;;;5088518;28;20179;-65
2021/10/20 08:19:46;;;;;;;8.23;6.28;;;16.90;99.90;;;;;;5088414;28;20204;-65
2021/10/20 08:22:12;;;;;;;10.00;7.10;;;16.90;99.90;;;;;;5087466;28;20291;-65
2021/10/20 08:24:37;;;;;;;7.57;6.88;;;17.00;99.90;;;;;;5087976;28;20156;-65
2021/10/20 08:27:03;;;;;;;7.68;6.40;;;17.00;99.90;;;;;;5088240;28;20165;-65
2021/10/20 08:29:29;;;;;;;9.20;6.50;;;17.10;99.90;;;;;;5088321;28;20164;-65
2021/10/20 08:31:55;;;;;;;11.18;6.97;;;17.10;99.90;;;;;;5088355;28;20160;-65
2021/10/20 08:34:22;;;;;;;7.15;6.45;;;17.10;99.90;;;;;;5088672;28;20527;-65
2021/10/20 08:36:48;;;;;;;6.82;6.22;;;17.20;99.90;;;;;;5087906;28;20565;-65
2021/10/20 08:39:15;;;;;;;9.77;6.32;;;17.20;99.90;;;;;;5086779;28;20172;-65
2021/10/20 08:41:41;;;;;;;7.68;6.75;;;17.20;99.90;;;;;;5087979;28;20673;-65
2021/10/20 08:44:07;;;;;;;9.88;6.35;;;17.20;99.90;;;;;;5087977;28;20164;-65
2021/10/20 08:46:33;;;;;;;8.45;6.32;;;17.10;99.90;;;;;;5088094;28;20168;-65
2021/10/20 08:49:00;;;;;;;9.98;6.65;;;17.20;99.90;;;;;;5087866;28;20156;-65
2021/10/20 08:51:26;;;;;;;9.00;6.57;;;17.30;99.90;;;;;;5087425;28;20156;-65
2021/10/20 08:53:52;;;;;;;8.55;6.40;;;17.20;99.90;;;;;;5088242;28;20152;-65
2021/10/20 08:56:18;;;;;;;7.80;6.95;;;17.30;99.90;;;;;;5087962;28;20164;-65
2021/10/20 08:58:44;;;;;;;8.82;7.10;;;17.50;99.90;;;;;;5087694;28;20668;-65
2021/10/20 09:01:10;;;;;;;7.65;6.75;;;17.60;99.90;;;;;;5087658;28;20264;-65
2021/10/20 09:03:36;;;;;;;8.30;6.43;;;17.60;99.90;;;;;;5087874;28;20168;-65
2021/10/20 09:06:02;;;;;;;9.55;6.80;;;17.60;99.90;;;;;;5087492;28;20599;-65
2021/10/20 09:08:45;;;;;;;6.55;5.82;;;17.60;99.90;;;;;;5087504;28;20179;-65
2021/10/20 09:11:34;;;;;;;7.03;6.32;;;17.60;99.90;;;;;;5087294;28;20215;-65
2021/10/20 09:14:12;;;;;;;7.82;6.55;;;17.60;99.90;;;;;;5087863;28;20239;-65
2021/10/20 09:16:41;;;;;;;8.00;6.25;;;17.70;99.90;;;;;;5087677;28;20164;-65
2021/10/20 09:19:31;;;;;;;7.10;6.35;;;17.80;99.90;;;;;;5087308;28;20168;-65
2021/10/20 09:22:03;;;;;;;7.00;6.35;;;17.80;99.90;;;;;;5086911;28;20184;-65
2021/10/20 09:24:34;;;;;;;9.20;6.55;;;17.70;99.90;;;;;;5087447;28;20147;-65
2021/10/20 09:27:01;;;;;;;14.98;7.75;;;17.60;99.90;;;;;;5087514;28;20191;-65
2021/10/20 09:29:28;;;;;;;8.82;6.63;;;17.60;99.90;;;;;;5087063;28;20191;-65
2021/10/20 09:31:55;;;;;;;9.55;6.72;;;17.70;99.90;;;;;;5087301;28;20157;-65
2021/10/20 09:34:21;;;;;;;7.78;6.43;;;17.80;99.90;;;;;;5085823;28;20227;-65
2021/10/20 09:36:51;;;;;;;13.02;6.65;;;17.70;99.90;;;;;;5086598;28;20198;-65
2021/10/20 09:39:17;;;;;;;6.85;6.07;;;17.80;99.90;;;;;;5087117;28;20737;-65
2021/10/20 09:41:43;;;;;;;7.43;6.15;;;17.80;99.90;;;;;;5085436;28;20187;-65
2021/10/20 09:44:12;;;;;;;7.07;6.32;;;17.90;99.90;;;;;;5086932;28;20160;-65
2021/10/20 09:46:42;;;;;;;7.07;6.38;;;17.90;99.90;;;;;;5086659;28;20180;-65
2021/10/20 09:49:19;;;;;;;10.65;6.57;;;17.70;99.90;;;;;;5086935;28;20168;-65
2021/10/20 09:51:46;;;;;;;7.38;6.55;;;17.80;99.90;;;;;;5086256;28;20175;-65
2021/10/20 09:54:41;;;;;;;6.82;5.90;;;17.90;99.90;;;;;;5086770;28;20524;-65
2021/10/20 09:57:07;;;;;;;8.55;6.70;;;17.90;99.90;;;;;;5086460;28;20550;-65
2021/10/20 09:59:32;;;;;;;9.65;6.72;;;17.90;99.90;;;;;;5086689;28;20551;-65
2021/10/20 10:01:59;;;;;;;9.05;6.78;;;18.00;99.90;;;;;;5086483;28;20183;-65
2021/10/20 10:04:25;;;;;;;10.20;6.60;;;18.00;99.90;;;;;;5086533;28;20174;-65
2021/10/20 10:06:51;;;;;;;6.70;6.07;;;18.10;99.90;;;;;;5086326;28;20164;-65
2021/10/20 10:09:18;;;;;;;7.55;6.60;;;18.00;99.90;;;;;;5084816;28;20633;-65
2021/10/20 10:11:51;;;;;;;11.02;6.07;;;17.90;99.90;;;;;;5084873;28;20215;-65
2021/10/20 10:14:21;;;;;;;7.25;6.20;;;17.90;99.90;;;;;;5086281;28;20144;-65
2021/10/20 10:16:51;;;;;;;10.10;6.50;;;17.80;99.90;;;;;;5086517;28;20152;-65
2021/10/20 10:19:17;;;;;;;10.15;6.60;;;17.80;99.90;;;;;;5085970;28;20355;-65
2021/10/20 10:21:45;;;;;;;11.50;6.60;;;17.80;99.90;;;;;;5085663;28;20214;-65
2021/10/20 10:24:12;;;;;;;8.55;6.70;;;17.70;99.90;;;;;;5086025;28;20160;-65
2021/10/20 10:27:00;;;;;;;7.63;6.32;;;17.70;99.90;;;;;;5086063;28;20633;-65
2021/10/20 10:29:26;;;;;;;8.07;6.97;;;17.80;99.90;;;;;;5085880;28;20425;-66
2021/10/20 10:31:52;;;;;;;6.95;6.10;;;17.70;99.90;;;;;;5086244;28;20160;-65
2021/10/20 10:34:31;;;;;;;6.88;6.28;;;17.70;99.90;;;;;;5086435;28;20214;-65
2021/10/20 10:36:59;;;;;;;10.23;5.95;;;17.90;99.90;;;;;;5085974;28;20168;-65
2021/10/20 10:39:29;;;;;;;10.50;5.70;;;18.00;99.90;;;;;;5084883;28;20171;-65
2021/10/20 10:42:03;;;;;;;7.88;6.10;;;18.00;99.90;;;;;;5084856;28;20202;-65
2021/10/20 10:44:30;;;;;;;8.40;6.05;;;18.10;99.90;;;;;;5086250;28;20148;-65
2021/10/20 10:47:14;;;;;;;7.32;5.60;;;18.00;99.90;;;;;;5085899;28;20160;-65
2021/10/20 10:49:45;;;;;;;7.40;5.22;;;18.20;99.90;;;;;;5085775;28;20171;-65
2021/10/20 10:52:25;;;;;;;7.13;6.40;;;18.20;99.90;;;;;;5085505;28;20176;-65
2021/10/20 10:55:04;;;;;;;11.70;5.93;;;18.40;99.90;;;;;;5085967;28;20167;-65
2021/10/20 10:57:52;;;;;;;7.80;5.95;;;18.40;99.90;;;;;;5084590;28;20199;-65
2021/10/20 11:00:18;;;;;;;7.55;6.65;;;18.30;99.90;;;;;;5084360;28;20633;-65
2021/10/20 11:02:46;;;;;;;8.10;5.78;;;18.20;99.90;;;;;;5085915;28;20167;-65
2021/10/20 11:05:13;;;;;;;8.45;5.75;;;18.20;99.90;;;;;;5085744;28;20181;-65
2021/10/20 11:07:42;;;;;;;9.07;6.38;;;18.40;99.90;;;;;;5084292;28;20168;-65
2021/10/20 11:10:08;;;;;;;7.97;6.05;;;18.30;99.90;;;;;;5085639;28;20204;-65
2021/10/20 11:12:34;;;;;;;8.43;5.35;;;18.30;99.90;;;;;;5085702;28;20164;-65
2021/10/20 11:15:00;;;;;;;7.45;6.35;;;18.30;99.90;;;;;;5085703;28;20195;-65
2021/10/20 11:17:26;;;;;;;7.00;6.30;;;18.40;99.90;;;;;;5085737;28;20243;-65
2021/10/20 11:19:51;;;;;;;7.70;5.60;;;18.40;99.90;;;;;;5085508;28;20168;-65
2021/10/20 11:22:18;;;;;;;6.30;5.25;;;18.40;99.90;;;;;;5085047;28;20195;-65
2021/10/20 11:24:46;;;;;;;9.10;6.00;;;18.50;99.90;;;;;;5085692;28;20254;-65
2021/10/20 11:27:13;;;;;;;7.13;5.40;;;18.60;99.90;;;;;;5085542;28;20163;-65
2021/10/20 11:29:41;;;;;;;7.95;5.68;;;18.70;99.90;;;;;;5085103;28;20168;-65
2021/10/20 11:32:12;;;;;;;6.03;5.30;;;18.60;99.90;;;;;;5085463;28;20171;-65
2021/10/20 11:34:39;;;;;;;10.48;6.40;;;18.60;99.90;;;;;;5085502;28;20227;-65
2021/10/20 11:37:09;;;;;;;8.05;5.50;;;18.60;99.90;;;;;;5083503;28;20183;-65
2021/10/20 11:39:35;;;;;;;9.35;5.45;;;18.60;99.90;;;;;;5085361;28;20175;-65
2021/10/20 11:42:02;;;;;;;5.90;5.40;;;18.70;99.90;;;;;;5085041;28;20192;-65
2021/10/20 11:44:34;;;;;;;6.38;4.88;;;18.90;99.90;;;;;;5085383;28;20536;-65
2021/10/20 11:47:03;;;;;;;10.40;5.43;;;18.90;99.90;;;;;;5085423;28;20156;-65
2021/10/20 11:49:29;;;;;;;6.70;5.30;;;18.80;99.90;;;;;;5083922;28;20168;-65
2021/10/20 11:51:55;;;;;;;6.60;5.30;;;18.80;99.90;;;;;;5084842;28;20198;-65
2021/10/20 11:54:24;;;;;;;7.53;5.80;;;18.70;99.90;;;;;;5085243;28;20167;-65
2021/10/20 11:56:55;;;;;;;8.55;5.38;;;18.70;99.90;;;;;;5085235;28;20184;-65
2021/10/20 11:59:23;;;;;;;8.73;6.22;;;18.60;99.90;;;;;;5088765;28;20644;-67
2021/10/20 12:01:51;;;;;;;7.93;5.68;;;18.60;99.90;;;;;;5088411;28;20184;-65
2021/10/20 12:04:19;;;;;;;10.23;6.10;;;18.50;99.90;;;;;;5087431;28;20160;-65
2021/10/20 12:06:49;;;;;;;11.05;5.13;;;18.60;99.90;;;;;;5088267;28;20195;-65
2021/10/20 12:09:16;;;;;;;8.38;5.63;;;18.60;99.90;;;;;;5087124;28;20230;-65
2021/10/20 12:11:42;;;;;;;7.05;5.55;;;18.60;99.90;;;;;;5088106;28;20215;-65
2021/10/20 12:14:14;;;;;;;9.07;5.68;;;18.60;99.90;;;;;;5088671;28;20164;-65
2021/10/20 12:16:42;;;;;;;6.22;5.18;;;18.60;99.90;;;;;;5088567;28;20192;-65
2021/10/20 12:19:10;;;;;;;15.32;6.10;;;18.50;99.90;;;;;;5088257;28;20172;-65
2021/10/20 12:21:39;;;;;;;6.47;5.20;;;18.70;99.90;;;;;;5087676;28;20195;-65
2021/10/20 12:24:05;;;;;;;7.63;5.70;;;18.70;99.90;;;;;;5086232;28;20168;-65
2021/10/20 12:26:33;;;;;;;7.80;4.97;;;18.80;99.90;;;;;;5088310;28;20168;-65
2021/10/20 12:29:10;;;;;;;7.07;5.28;;;18.70;99.90;;;;;;5088196;28;20497;-65
2021/10/20 12:31:37;;;;;;;10.48;5.38;;;18.70;99.90;;;;;;5088091;28;20209;-65
2021/10/20 12:34:03;;;;;;;8.70;5.80;;;18.90;99.90;;;;;;5087954;28;20254;-66
2021/10/20 12:36:31;;;;;;;13.38;5.90;;;19.00;99.90;;;;;;5087900;28;20164;-65
2021/10/20 12:38:59;;;;;;;6.25;5.63;;;19.00;99.90;;;;;;5088059;28;20176;-65
2021/10/20 12:41:29;;;;;;;9.77;5.10;;;19.00;99.90;;;;;;5087357;28;20199;-65
2021/10/20 12:43:58;;;;;;;6.32;5.70;;;19.00;99.90;;;;;;5087797;28;20168;-65